createdAt,value
2017-02-28T00:00:30.273Z,91.96
2017-02-28T00:01:30.625Z,91.86
2017-02-28T00:02:30.606Z,91.67
2017-02-28T00:03:30.587Z,92.24
2017-02-28T00:04:30.561Z,91.96
2017-02-28T00:05:30.541Z,91.77
2017-02-28T00:06:30.541Z,91.86
2017-02-28T00:07:30.515Z,92.61
2017-02-28T00:08:30.495Z,92.61
2017-02-28T00:09:30.469Z,92.61
2017-02-28T00:10:30.453Z,92.61
2017-02-28T00:11:30.420Z,92.43
2017-02-28T00:12:30.414Z,92.43
2017-02-28T00:13:30.392Z,92.33
2017-02-28T00:14:30.364Z,92.24
2017-02-28T00:15:30.336Z,92.61
2017-02-28T00:16:30.312Z,92.61
2017-02-28T00:17:30.301Z,92.61
2017-02-28T00:18:30.279Z,92.52
2017-02-28T00:19:30.249Z,92.52
2017-02-28T00:20:30.253Z,92.52
2017-02-28T00:21:30.209Z,92.43
2017-02-28T00:22:30.191Z,92.99
2017-02-28T00:23:30.165Z,92.8
2017-02-28T00:24:30.164Z,92.71
2017-02-28T00:25:30.136Z,92.99
2017-02-28T00:26:30.108Z,93.09
2017-02-28T00:27:30.097Z,92.9
2017-02-28T00:28:30.067Z,92.8
2017-02-28T00:29:30.041Z,92.8
2017-02-28T00:30:30.021Z,93.09
2017-02-28T00:31:29.624Z,92.9
2017-02-28T00:32:29.992Z,93.09
2017-02-28T00:33:29.970Z,93.09
2017-02-28T00:34:29.946Z,92.8
2017-02-28T00:35:29.930Z,93.09
2017-02-28T00:36:29.921Z,93.09
2017-02-28T00:37:29.884Z,93.37
2017-02-28T00:38:29.852Z,93.18
2017-02-28T00:39:29.845Z,93.18
2017-02-28T00:40:29.828Z,93.37
2017-02-28T00:41:29.804Z,93.47
2017-02-28T00:42:29.767Z,93.56
2017-02-28T00:43:29.760Z,93.61
2017-02-28T00:44:29.741Z,93.51
2017-02-28T00:45:29.744Z,93.28
2017-02-28T00:46:29.700Z,93.56
2017-02-28T00:47:29.676Z,93.65
2017-02-28T00:48:29.648Z,93.75
2017-02-28T00:49:29.637Z,93.75
2017-02-28T00:50:29.617Z,93.65
2017-02-28T00:51:29.588Z,93.8
2017-02-28T00:52:29.574Z,93.51
2017-02-28T00:53:29.564Z,93.7
2017-02-28T00:54:29.520Z,93.61
2017-02-28T00:55:29.503Z,93.89
2017-02-28T00:56:29.499Z,93.51
2017-02-28T00:57:29.457Z,93.7
2017-02-28T00:58:29.437Z,94.27
2017-02-28T00:59:29.417Z,94.08
2017-02-28T01:00:29.395Z,93.89
2017-02-28T01:01:29.400Z,94.27
2017-02-28T01:02:29.362Z,94.08
2017-02-28T01:03:29.331Z,94.27
2017-02-28T01:04:29.323Z,94.27
2017-02-28T01:05:29.289Z,94.08
2017-02-28T01:06:28.915Z,94.36
2017-02-28T01:07:29.260Z,94.55
2017-02-28T01:08:29.242Z,94.36
2017-02-28T01:09:29.218Z,94.55
2017-02-28T01:10:29.213Z,94.27
2017-02-28T01:11:29.179Z,94.27
2017-02-28T01:12:29.155Z,94.36
2017-02-28T01:13:29.144Z,94.36
2017-02-28T01:14:29.118Z,94.27
2017-02-28T01:15:29.091Z,94.27
2017-02-28T01:16:29.075Z,94.46
2017-02-28T01:17:29.057Z,94.18
2017-02-28T01:18:29.030Z,94.27
2017-02-28T01:19:29.004Z,94.36
2017-02-28T01:20:28.994Z,94.27
2017-02-28T01:21:28.974Z,94.27
2017-02-28T01:22:28.949Z,94.18
2017-02-28T01:23:28.931Z,94.36
2017-02-28T01:24:28.527Z,94.27
2017-02-28T01:25:28.891Z,94.27
2017-02-28T01:26:28.874Z,94.27
2017-02-28T01:27:28.860Z,94.55
2017-02-28T01:28:28.438Z,94.27
2017-02-28T01:29:28.793Z,94.46
2017-02-28T01:30:28.774Z,94.36
2017-02-28T01:31:28.775Z,94.36
2017-02-28T01:32:28.739Z,94.27
2017-02-28T01:33:28.711Z,94.27
2017-02-28T01:34:28.713Z,94.18
2017-02-28T01:35:28.681Z,94.08
2017-02-28T01:36:28.659Z,94.18
2017-02-28T01:37:28.643Z,94.27
2017-02-28T01:38:28.607Z,94.84
2017-02-28T01:39:28.598Z,94.84
2017-02-28T01:40:28.564Z,94.55
2017-02-28T01:41:28.544Z,94.84
2017-02-28T01:42:28.556Z,94.36
2017-02-28T01:43:28.522Z,94.55
2017-02-28T01:44:28.108Z,94.55
2017-02-28T01:45:28.472Z,94.65
2017-02-28T01:46:28.443Z,94.46
2017-02-28T01:47:28.451Z,94.65
2017-02-28T01:48:28.418Z,94.74
2017-02-28T01:49:28.396Z,94.55
2017-02-28T01:50:28.374Z,94.65
2017-02-28T01:51:28.351Z,94.36
2017-02-28T01:52:28.364Z,94.46
2017-02-28T01:53:28.303Z,94.55
2017-02-28T01:54:28.296Z,94.55
2017-02-28T01:55:28.271Z,94.65
2017-02-28T01:56:28.251Z,95.12
2017-02-28T01:57:28.232Z,94.46
2017-02-28T01:58:28.209Z,94.55
2017-02-28T01:59:28.189Z,94.93
2017-02-28T02:00:28.159Z,94.93
2017-02-28T02:01:28.152Z,94.65
2017-02-28T02:02:28.143Z,95.12
2017-02-28T02:03:28.107Z,94.84
2017-02-28T02:04:28.093Z,95.21
2017-02-28T02:05:28.071Z,95.21
2017-02-28T02:06:28.060Z,94.84
2017-02-28T02:07:27.636Z,94.93
2017-02-28T02:08:27.818Z,94.84
2017-02-28T02:09:27.983Z,95.03
2017-02-28T02:10:27.570Z,95.03
2017-02-28T02:11:27.936Z,95.03
2017-02-28T02:12:28.145Z,94.74
2017-02-28T02:13:27.906Z,95.03
2017-02-28T02:14:27.495Z,94.55
2017-02-28T02:15:27.855Z,94.65
2017-02-28T02:16:27.843Z,95.4
2017-02-28T02:17:27.433Z,95.4
2017-02-28T02:18:27.800Z,95.31
2017-02-28T02:19:27.786Z,95.5
2017-02-28T02:20:27.774Z,95.5
2017-02-28T02:21:27.728Z,95.31
2017-02-28T02:22:27.735Z,95.21
2017-02-28T02:23:27.698Z,95.21
2017-02-28T02:24:27.665Z,95.4
2017-02-28T02:25:27.661Z,95.4
2017-02-28T02:26:27.626Z,95.21
2017-02-28T02:27:27.605Z,95.4
2017-02-28T02:28:27.599Z,95.12
2017-02-28T02:29:27.574Z,95.21
2017-02-28T02:30:27.540Z,95.12
2017-02-28T02:31:27.535Z,95.12
2017-02-28T02:32:27.513Z,95.4
2017-02-28T02:33:27.114Z,95.31
2017-02-28T02:34:27.462Z,95.21
2017-02-28T02:35:27.443Z,95.4
2017-02-28T02:36:27.430Z,95.12
2017-02-28T02:37:27.424Z,95.12
2017-02-28T02:38:27.389Z,95.03
2017-02-28T02:39:27.376Z,95.03
2017-02-28T02:40:27.338Z,94.93
2017-02-28T02:41:27.330Z,95.12
2017-02-28T02:42:26.923Z,95.4
2017-02-28T02:43:27.283Z,95.4
2017-02-28T02:44:27.269Z,95.5
2017-02-28T02:45:27.072Z,95.31
2017-02-28T02:46:27.415Z,95.59
2017-02-28T02:47:27.209Z,95.4
2017-02-28T02:48:27.200Z,95.21
2017-02-28T02:49:27.168Z,95.21
2017-02-28T02:50:27.144Z,95.31
2017-02-28T02:51:27.121Z,95.4
2017-02-28T02:52:27.093Z,95.21
2017-02-28T02:53:27.083Z,95.21
2017-02-28T02:54:27.054Z,95.78
2017-02-28T02:55:26.647Z,95.78
2017-02-28T02:56:27.020Z,95.5
2017-02-28T02:57:27.016Z,95.5
2017-02-28T02:58:26.595Z,95.4
2017-02-28T02:59:26.956Z,95.31
2017-02-28T03:00:26.931Z,95.78
2017-02-28T03:01:26.909Z,95.5
2017-02-28T03:02:26.512Z,95.59
2017-02-28T03:03:26.889Z,95.78
2017-02-28T03:04:26.859Z,95.78
2017-02-28T03:05:26.833Z,95.4
2017-02-28T03:06:26.830Z,95.87
2017-02-28T03:07:26.818Z,95.87
2017-02-28T03:08:40.420Z,95.59
2017-02-28T03:09:26.747Z,95.59
2017-02-28T03:10:26.724Z,95.59
2017-02-28T03:11:26.710Z,95.59
2017-02-28T03:12:26.306Z,95.87
2017-02-28T03:13:26.675Z,95.87
2017-02-28T03:14:26.460Z,95.97
2017-02-28T03:15:26.637Z,95.97
2017-02-28T03:16:26.614Z,95.68
2017-02-28T03:17:26.584Z,96.06
2017-02-28T03:18:26.564Z,95.97
2017-02-28T03:19:26.740Z,95.97
2017-02-28T03:20:26.530Z,96.06
2017-02-28T03:21:26.514Z,95.97
2017-02-28T03:22:26.120Z,96.06
2017-02-28T03:23:26.475Z,95.68
2017-02-28T03:24:26.448Z,95.97
2017-02-28T03:25:26.445Z,96.06
2017-02-28T03:26:26.021Z,96.06
2017-02-28T03:27:25.998Z,95.97
2017-02-28T03:28:26.357Z,95.87
2017-02-28T03:29:26.361Z,95.97
2017-02-28T03:30:26.316Z,95.87
2017-02-28T03:31:26.310Z,95.59
2017-02-28T03:32:26.292Z,95.59
2017-02-28T03:33:26.258Z,95.78
2017-02-28T03:34:26.232Z,95.78
2017-02-28T03:35:26.218Z,95.68
2017-02-28T03:36:26.208Z,95.78
2017-02-28T03:37:26.200Z,95.78
2017-02-28T03:38:26.152Z,95.87
2017-02-28T03:39:26.144Z,95.97
2017-02-28T03:40:26.113Z,96.01
2017-02-28T03:41:26.090Z,95.64
2017-02-28T03:42:26.073Z,95.83
2017-02-28T03:43:26.064Z,95.73
2017-02-28T03:44:26.030Z,95.68
2017-02-28T03:45:26.211Z,95.87
2017-02-28T03:46:26.189Z,95.78
2017-02-28T03:47:25.967Z,95.59
2017-02-28T03:48:25.962Z,95.59
2017-02-28T03:49:25.938Z,95.59
2017-02-28T03:50:25.910Z,95.59
2017-02-28T03:51:25.891Z,96.15
2017-02-28T03:52:25.868Z,95.78
2017-02-28T03:53:25.487Z,95.83
2017-02-28T03:54:25.841Z,95.73
2017-02-28T03:55:25.806Z,95.92
2017-02-28T03:56:25.795Z,95.97
2017-02-28T03:57:25.779Z,96.15
2017-02-28T03:58:25.757Z,96.06
2017-02-28T03:59:25.740Z,96.15
2017-02-28T04:00:25.716Z,95.97
2017-02-28T04:01:25.696Z,95.97
2017-02-28T04:02:25.665Z,96.01
2017-02-28T04:03:25.650Z,95.87
2017-02-28T04:04:25.630Z,96.06
2017-02-28T04:05:25.615Z,96.25
2017-02-28T04:06:25.613Z,96.25
2017-02-28T04:07:25.566Z,95.87
2017-02-28T04:08:25.556Z,96.01
2017-02-28T04:09:25.536Z,95.87
2017-02-28T04:10:25.514Z,96.15
2017-02-28T04:11:25.112Z,96.25
2017-02-28T04:12:25.480Z,96.25
2017-02-28T04:13:25.071Z,96.06
2017-02-28T04:14:25.433Z,96.06
2017-02-28T04:15:25.419Z,96.25
2017-02-28T04:16:25.387Z,96.34
2017-02-28T04:17:25.379Z,96.25
2017-02-28T04:18:25.345Z,96.06
2017-02-28T04:19:25.334Z,95.97
2017-02-28T04:20:25.504Z,96.06
2017-02-28T04:21:25.282Z,96.06
2017-02-28T04:22:25.276Z,96.25
2017-02-28T04:23:25.242Z,95.97
2017-02-28T04:24:25.236Z,95.97
2017-02-28T04:25:25.204Z,95.97
2017-02-28T04:26:24.813Z,95.87
2017-02-28T04:27:25.174Z,95.87
2017-02-28T04:28:25.143Z,95.97
2017-02-28T04:29:25.120Z,96.06
2017-02-28T04:30:25.119Z,96.06
2017-02-28T04:31:25.103Z,95.97
2017-02-28T04:32:25.057Z,95.97
2017-02-28T04:33:25.049Z,95.78
2017-02-28T04:34:25.024Z,95.87
2017-02-28T04:35:25.009Z,96.06
2017-02-28T04:36:24.983Z,96.53
2017-02-28T04:37:24.961Z,96.53
2017-02-28T04:38:24.937Z,95.87
2017-02-28T04:39:24.920Z,96.44
2017-02-28T04:40:24.910Z,96.72
2017-02-28T04:41:24.879Z,95.87
2017-02-28T04:42:24.873Z,95.97
2017-02-28T04:43:24.833Z,96.34
2017-02-28T04:44:24.824Z,96.53
2017-02-28T04:45:24.814Z,96.53
2017-02-28T04:46:24.773Z,96.72
2017-02-28T04:47:24.762Z,96.72
2017-02-28T04:48:24.733Z,96.81
2017-02-28T04:49:24.715Z,96.81
2017-02-28T04:50:24.705Z,96.81
2017-02-28T04:51:24.684Z,96.63
2017-02-28T04:52:24.665Z,96.72
2017-02-28T04:53:24.637Z,96.63
2017-02-28T04:54:24.236Z,96.72
2017-02-28T04:55:24.590Z,96.63
2017-02-28T04:56:24.574Z,96.63
2017-02-28T04:57:24.557Z,96.53
2017-02-28T04:58:24.548Z,96.81
2017-02-28T04:59:24.517Z,96.53
2017-02-28T05:00:24.493Z,96.63
2017-02-28T05:01:24.472Z,96.72
2017-02-28T05:02:24.457Z,96.53
2017-02-28T05:03:24.056Z,96.72
2017-02-28T05:04:24.404Z,96.34
2017-02-28T05:05:24.383Z,96.34
2017-02-28T05:06:24.365Z,96.63
2017-02-28T05:07:24.352Z,96.63
2017-02-28T05:08:24.314Z,96.72
2017-02-28T05:09:24.311Z,96.44
2017-02-28T05:10:24.291Z,96.72
2017-02-28T05:11:23.876Z,96.53
2017-02-28T05:12:24.247Z,96.44
2017-02-28T05:13:23.833Z,96.63
2017-02-28T05:14:24.197Z,96.53
2017-02-28T05:15:24.184Z,96.63
2017-02-28T05:16:24.168Z,97
2017-02-28T05:17:24.128Z,96.81
2017-02-28T05:18:24.122Z,96.81
2017-02-28T05:19:23.701Z,96.91
2017-02-28T05:20:24.091Z,97
2017-02-28T05:21:24.052Z,96.81
2017-02-28T05:22:24.040Z,96.91
2017-02-28T05:23:24.007Z,97
2017-02-28T05:24:23.998Z,96.72
2017-02-28T05:25:23.978Z,96.72
2017-02-28T05:26:23.950Z,96.72
2017-02-28T05:27:23.935Z,97.19
2017-02-28T05:28:23.906Z,96.91
2017-02-28T05:29:23.885Z,97.1
2017-02-28T05:30:23.868Z,97.19
2017-02-28T05:31:23.844Z,97.1
2017-02-28T05:32:23.443Z,97.19
2017-02-28T05:33:23.820Z,97.1
2017-02-28T05:34:23.802Z,97.1
2017-02-28T05:35:23.763Z,97
2017-02-28T05:36:23.739Z,97.1
2017-02-28T05:37:23.719Z,97
2017-02-28T05:38:23.711Z,96.72
2017-02-28T05:39:23.674Z,97.19
2017-02-28T05:40:23.655Z,96.91
2017-02-28T05:41:23.657Z,96.91
2017-02-28T05:42:23.634Z,96.91
2017-02-28T05:43:23.594Z,96.91
2017-02-28T05:44:23.585Z,97.1
2017-02-28T05:45:23.557Z,96.91
2017-02-28T05:46:23.536Z,96.72
2017-02-28T05:47:23.519Z,96.91
2017-02-28T05:48:23.509Z,97.67
2017-02-28T05:49:23.489Z,97.48
2017-02-28T05:50:23.467Z,96.91
2017-02-28T05:51:23.051Z,97.48
2017-02-28T05:52:23.413Z,97.67
2017-02-28T05:53:23.014Z,97.29
2017-02-28T05:54:23.397Z,97.57
2017-02-28T05:55:23.358Z,97.48
2017-02-28T05:56:22.948Z,97.48
2017-02-28T05:57:23.327Z,97.48
2017-02-28T05:58:23.299Z,97.48
2017-02-28T05:59:23.277Z,97.38
2017-02-28T06:00:23.268Z,97.38
2017-02-28T06:01:23.246Z,97.57
2017-02-28T06:02:23.224Z,97.48
2017-02-28T06:03:23.202Z,97.29
2017-02-28T06:04:23.193Z,97.38
2017-02-28T06:05:23.149Z,97.1
2017-02-28T06:06:23.160Z,97.48
2017-02-28T06:07:23.110Z,97.76
2017-02-28T06:08:23.092Z,97.1
2017-02-28T06:09:23.083Z,97.85
2017-02-28T06:10:23.070Z,97.38
2017-02-28T06:11:23.031Z,97.67
2017-02-28T06:12:23.016Z,97.57
2017-02-28T06:13:22.990Z,97.57
2017-02-28T06:14:22.595Z,97.71
2017-02-28T06:15:22.957Z,97.43
2017-02-28T06:16:22.554Z,97.61
2017-02-28T06:17:22.905Z,97.61
2017-02-28T06:18:22.929Z,97.61
2017-02-28T06:19:22.877Z,97.99
2017-02-28T06:20:22.857Z,97.71
2017-02-28T06:21:22.840Z,97.52
2017-02-28T06:22:22.814Z,98.09
2017-02-28T06:23:22.789Z,97.9
2017-02-28T06:24:22.776Z,98.18
2017-02-28T06:25:22.758Z,98.28
2017-02-28T06:26:22.732Z,97.99
2017-02-28T06:27:22.700Z,98.28
2017-02-28T06:28:22.715Z,97.99
2017-02-28T06:29:22.679Z,97.71
2017-02-28T06:30:22.654Z,98.18
2017-02-28T06:31:22.636Z,98.47
2017-02-28T06:32:22.610Z,97.71
2017-02-28T06:33:22.590Z,97.99
2017-02-28T06:34:22.588Z,97.9
2017-02-28T06:35:22.550Z,97.8
2017-02-28T06:36:22.532Z,97.99
2017-02-28T06:37:22.516Z,97.9
2017-02-28T06:38:22.489Z,97.61
2017-02-28T06:39:22.491Z,97.71
2017-02-28T06:40:22.435Z,97.71
2017-02-28T06:41:22.426Z,97.61
2017-02-28T06:42:22.403Z,97.61
2017-02-28T06:43:22.372Z,97.61
2017-02-28T06:44:21.972Z,97.61
2017-02-28T06:45:22.344Z,97.14
2017-02-28T06:46:22.331Z,97.61
2017-02-28T06:47:22.303Z,97.61
2017-02-28T06:48:22.273Z,97.9
2017-02-28T06:49:22.253Z,97.75
2017-02-28T06:50:21.853Z,98.04
2017-02-28T06:51:22.211Z,97.75
2017-02-28T06:52:22.203Z,97.28
2017-02-28T06:53:22.194Z,96.91
2017-02-28T06:54:22.150Z,96.62
2017-02-28T06:55:22.149Z,96.91
2017-02-28T06:56:22.123Z,96.44
2017-02-28T06:57:22.085Z,96.25
2017-02-28T06:58:22.067Z,95.5
2017-02-28T06:59:22.047Z,95.78
2017-02-28T07:00:22.027Z,95.5
2017-02-28T07:01:22.017Z,95.5
2017-02-28T07:02:21.610Z,95.31
2017-02-28T07:03:21.958Z,95.02
2017-02-28T07:04:21.562Z,95.02
2017-02-28T07:05:21.918Z,94.36
2017-02-28T07:06:21.901Z,94.36
2017-02-28T07:07:21.887Z,93.98
2017-02-28T07:08:21.875Z,93.23
2017-02-28T07:09:21.847Z,92.66
2017-02-28T07:10:21.819Z,92.1
2017-02-28T07:11:21.813Z,92
2017-02-28T07:12:21.800Z,91.06
2017-02-28T07:13:21.770Z,89.93
2017-02-28T07:14:21.751Z,89.18
2017-02-28T07:15:21.331Z,89.46
2017-02-28T07:16:21.704Z,88.52
2017-02-28T07:17:21.687Z,87.86
2017-02-28T07:18:21.655Z,86.82
2017-02-28T07:19:21.633Z,86.44
2017-02-28T07:20:21.624Z,86.07
2017-02-28T07:21:21.599Z,85.69
2017-02-28T07:22:21.579Z,85.5
2017-02-28T07:23:21.548Z,85.41
2017-02-28T07:24:21.536Z,84.84
2017-02-28T07:25:21.507Z,84.28
2017-02-28T07:26:21.489Z,84.32
2017-02-28T07:27:21.461Z,84.32
2017-02-28T07:28:21.459Z,83.56
2017-02-28T07:29:21.433Z,83.94
2017-02-28T07:30:21.415Z,83.84
2017-02-28T07:31:21.395Z,84.79
2017-02-28T07:32:21.369Z,84.6
2017-02-28T07:33:21.372Z,83.94
2017-02-28T07:34:21.334Z,84.03
2017-02-28T07:35:21.297Z,83.94
2017-02-28T07:36:21.287Z,85.07
2017-02-28T07:37:21.269Z,85.03
2017-02-28T07:38:21.247Z,84.84
2017-02-28T07:39:21.216Z,85.31
2017-02-28T07:40:21.208Z,85.5
2017-02-28T07:41:21.210Z,85.13
2017-02-28T07:42:21.169Z,84.28
2017-02-28T07:43:21.136Z,83.8
2017-02-28T07:44:21.117Z,83.75
2017-02-28T07:45:21.107Z,83.43
2017-02-28T07:46:21.085Z,83.94
2017-02-28T07:47:21.064Z,84.56
2017-02-28T07:48:21.034Z,84.28
2017-02-28T07:49:21.024Z,83.8
2017-02-28T07:50:20.607Z,82.86
2017-02-28T07:51:20.970Z,82.86
2017-02-28T07:52:20.979Z,82.24
2017-02-28T07:53:20.931Z,82.34
2017-02-28T07:54:20.923Z,82.62
2017-02-28T07:55:20.897Z,82.15
2017-02-28T07:56:20.888Z,83
2017-02-28T07:57:20.845Z,81.68
2017-02-28T07:58:20.446Z,81.3
2017-02-28T07:59:20.820Z,81.49
2017-02-28T08:00:20.795Z,81.77
2017-02-28T08:01:20.778Z,81.96
2017-02-28T08:02:20.753Z,81.73
2017-02-28T08:03:20.723Z,81.63
2017-02-28T08:04:20.699Z,81.68
2017-02-28T08:05:20.708Z,81.11
2017-02-28T08:06:20.674Z,80.07
2017-02-28T08:07:20.650Z,79.98
2017-02-28T08:08:20.625Z,79.13
2017-02-28T08:09:20.615Z,79.03
2017-02-28T08:10:20.598Z,79.22
2017-02-28T08:11:20.581Z,78.38
2017-02-28T08:12:20.571Z,78.19
2017-02-28T08:13:20.531Z,78.19
2017-02-28T08:14:20.515Z,78.38
2017-02-28T08:15:20.488Z,78.75
2017-02-28T08:16:20.472Z,78.85
2017-02-28T08:17:20.065Z,78.09
2017-02-28T08:18:20.439Z,78.47
2017-02-28T08:19:20.414Z,78.66
2017-02-28T08:20:20.380Z,78.28
2017-02-28T08:21:20.360Z,78.38
2017-02-28T08:22:20.360Z,78.38
2017-02-28T08:23:19.944Z,78.56
2017-02-28T08:24:20.311Z,78.94
2017-02-28T08:25:20.311Z,78.94
2017-02-28T08:26:20.261Z,79.13
2017-02-28T08:27:20.254Z,78.75
2017-02-28T08:28:20.233Z,79.13
2017-02-28T08:29:19.829Z,79.69
2017-02-28T08:30:20.196Z,79.32
2017-02-28T08:31:19.790Z,79.79
2017-02-28T08:32:20.165Z,79.13
2017-02-28T08:33:20.132Z,78.85
2017-02-28T08:34:19.719Z,78.66
2017-02-28T08:35:19.713Z,78.75
2017-02-28T08:36:20.071Z,79.03
2017-02-28T08:37:20.052Z,80.07
2017-02-28T08:38:20.033Z,80.36
2017-02-28T08:39:20.035Z,79.79
2017-02-28T08:40:20.014Z,80.17
2017-02-28T08:41:19.585Z,80.64
2017-02-28T08:42:19.970Z,80.26
2017-02-28T08:43:19.937Z,79.69
2017-02-28T08:44:19.912Z,79.88
2017-02-28T08:45:19.901Z,79.32
2017-02-28T08:46:19.881Z,79.69
2017-02-28T08:47:19.851Z,79.32
2017-02-28T08:48:19.845Z,79.6
2017-02-28T08:49:19.827Z,79.13
2017-02-28T08:50:19.798Z,79.46
2017-02-28T08:51:19.786Z,80.92
2017-02-28T08:52:19.754Z,80.83
2017-02-28T08:53:19.739Z,80.73
2017-02-28T08:54:19.733Z,80.36
2017-02-28T08:55:19.713Z,80.26
2017-02-28T08:56:19.673Z,79.79
2017-02-28T08:57:19.668Z,79.6
2017-02-28T08:58:19.633Z,80.45
2017-02-28T08:59:19.233Z,80.36
2017-02-28T09:00:19.621Z,80.36
2017-02-28T09:01:19.577Z,80.36
2017-02-28T09:02:19.568Z,80.64
2017-02-28T09:03:19.535Z,80.54
2017-02-28T09:04:19.542Z,80.54
2017-02-28T09:05:19.120Z,80.07
2017-02-28T09:06:19.480Z,79.69
2017-02-28T09:07:19.468Z,79.13
2017-02-28T09:08:19.062Z,79.22
2017-02-28T09:09:19.437Z,79.6
2017-02-28T09:10:19.410Z,79.6
2017-02-28T09:11:19.380Z,79.5
2017-02-28T09:12:19.368Z,79.98
2017-02-28T09:13:19.339Z,79.32
2017-02-28T09:14:19.329Z,78.89
2017-02-28T09:15:19.299Z,79.27
2017-02-28T09:16:19.278Z,79.27
2017-02-28T09:17:19.268Z,79.46
2017-02-28T09:18:19.249Z,79.74
2017-02-28T09:19:19.229Z,79.69
2017-02-28T09:20:19.204Z,80.07
2017-02-28T09:21:19.192Z,79.41
2017-02-28T09:22:19.169Z,79.32
2017-02-28T09:23:19.154Z,79.13
2017-02-28T09:24:19.124Z,78.94
2017-02-28T09:25:19.105Z,79.08
2017-02-28T09:26:19.092Z,78.98
2017-02-28T09:27:19.059Z,78.89
2017-02-28T09:28:19.050Z,78.7
2017-02-28T09:29:19.038Z,78.6
2017-02-28T09:30:18.616Z,78.89
2017-02-28T09:31:18.999Z,78.85
2017-02-28T09:32:18.585Z,78.66
2017-02-28T09:33:18.952Z,78.56
2017-02-28T09:34:18.937Z,78.32
2017-02-28T09:35:18.900Z,78.32
2017-02-28T09:36:18.883Z,78.04
2017-02-28T09:37:18.880Z,78.6
2017-02-28T09:38:18.859Z,78.32
2017-02-28T09:39:18.833Z,78.6
2017-02-28T09:40:18.826Z,78.09
2017-02-28T09:41:18.801Z,78.04
2017-02-28T09:42:18.766Z,78.32
2017-02-28T09:43:18.761Z,77.85
2017-02-28T09:44:18.725Z,78.42
2017-02-28T09:45:18.722Z,78.09
2017-02-28T09:46:18.307Z,78.09
2017-02-28T09:47:18.692Z,78.13
2017-02-28T09:48:18.660Z,77.81
2017-02-28T09:49:18.647Z,77.53
2017-02-28T09:50:18.610Z,77.37
2017-02-28T09:51:18.624Z,77.75
2017-02-28T09:52:18.569Z,77.56
2017-02-28T09:53:18.173Z,77.09
2017-02-28T09:54:18.545Z,77.47
2017-02-28T09:55:18.522Z,77.47
2017-02-28T09:56:18.509Z,77.09
2017-02-28T09:57:18.490Z,77.28
2017-02-28T09:58:18.465Z,77.09
2017-02-28T09:59:18.448Z,77.15
2017-02-28T10:00:18.410Z,77.25
2017-02-28T10:01:18.407Z,76.87
2017-02-28T10:02:18.375Z,76.58
2017-02-28T10:03:18.364Z,76.3
2017-02-28T10:04:18.358Z,77
2017-02-28T10:05:18.317Z,76.4
2017-02-28T10:06:18.317Z,76.34
2017-02-28T10:07:18.287Z,76.43
2017-02-28T10:08:18.256Z,75.87
2017-02-28T10:09:18.232Z,75.78
2017-02-28T10:10:18.224Z,75.87
2017-02-28T10:11:18.196Z,76.15
2017-02-28T10:12:18.170Z,75.87
2017-02-28T10:13:18.167Z,75.49
2017-02-28T10:14:18.146Z,75.78
2017-02-28T10:15:18.123Z,75.11
2017-02-28T10:16:17.713Z,74.55
2017-02-28T10:17:18.081Z,75.02
2017-02-28T10:18:17.681Z,74.55
2017-02-28T10:19:18.045Z,74.45
2017-02-28T10:20:18.043Z,74.17
2017-02-28T10:21:18.015Z,74.26
2017-02-28T10:22:17.989Z,74.36
2017-02-28T10:23:17.966Z,74.26
2017-02-28T10:24:17.948Z,73.88
2017-02-28T10:25:17.920Z,74.55
2017-02-28T10:26:17.914Z,74.74
2017-02-28T10:27:17.496Z,75.11
2017-02-28T10:28:17.867Z,75.49
2017-02-28T10:29:17.854Z,75.59
2017-02-28T10:30:17.838Z,75.59
2017-02-28T10:31:17.814Z,75.49
2017-02-28T10:32:17.782Z,75.11
2017-02-28T10:33:17.782Z,75.78
2017-02-28T10:34:17.755Z,75.11
2017-02-28T10:35:17.742Z,74.74
2017-02-28T10:36:17.722Z,75.3
2017-02-28T10:37:17.687Z,75.78
2017-02-28T10:38:17.686Z,75.02
2017-02-28T10:39:17.667Z,74.55
2017-02-28T10:40:17.653Z,74.92
2017-02-28T10:41:17.615Z,74.36
2017-02-28T10:42:17.593Z,74.26
2017-02-28T10:43:17.587Z,74.21
2017-02-28T10:44:17.582Z,74.49
2017-02-28T10:45:17.542Z,74.49
2017-02-28T10:46:17.538Z,75.59
2017-02-28T10:47:17.526Z,75.78
2017-02-28T10:48:17.493Z,75.49
2017-02-28T10:49:17.467Z,75.4
2017-02-28T10:50:17.468Z,75.78
2017-02-28T10:51:17.440Z,76.06
2017-02-28T10:52:17.420Z,75.96
2017-02-28T10:53:17.398Z,75.87
2017-02-28T10:54:17.382Z,75.87
2017-02-28T10:55:17.386Z,75.87
2017-02-28T10:56:17.333Z,76.25
2017-02-28T10:57:17.329Z,75.87
2017-02-28T10:58:17.309Z,75.68
2017-02-28T10:59:17.294Z,75.49
2017-02-28T11:00:17.256Z,75.24
2017-02-28T11:01:17.254Z,75.78
2017-02-28T11:02:17.236Z,74.77
2017-02-28T11:03:17.206Z,74.87
2017-02-28T11:04:17.182Z,74.87
2017-02-28T11:05:17.175Z,75.15
2017-02-28T11:06:17.158Z,75.43
2017-02-28T11:07:17.130Z,75.53
2017-02-28T11:08:17.131Z,75.05
2017-02-28T11:09:17.096Z,75.24
2017-02-28T11:10:17.090Z,74.96
2017-02-28T11:11:17.063Z,75.43
2017-02-28T11:12:17.055Z,76.19
2017-02-28T11:13:17.033Z,76.09
2017-02-28T11:14:17.009Z,76.28
2017-02-28T11:15:16.989Z,76.19
2017-02-28T11:16:16.981Z,76.38
2017-02-28T11:17:16.960Z,76.57
2017-02-28T11:18:16.942Z,76.95
2017-02-28T11:19:16.916Z,76.85
2017-02-28T11:20:16.917Z,76.76
2017-02-28T11:21:16.876Z,76.95
2017-02-28T11:22:16.876Z,78.51
2017-02-28T11:23:16.843Z,78.32
2017-02-28T11:24:16.849Z,78.04
2017-02-28T11:25:16.832Z,76.9
2017-02-28T11:26:16.803Z,76.53
2017-02-28T11:27:16.784Z,76.09
2017-02-28T11:28:16.751Z,76.09
2017-02-28T11:29:16.757Z,75.81
2017-02-28T11:30:16.712Z,76.19
2017-02-28T11:31:16.695Z,76.47
2017-02-28T11:32:16.676Z,76.28
2017-02-28T11:33:16.666Z,76.66
2017-02-28T11:34:16.649Z,76.47
2017-02-28T11:35:16.619Z,77.04
2017-02-28T11:36:16.624Z,76.38
2017-02-28T11:37:16.599Z,76.38
2017-02-28T11:38:16.567Z,76.38
2017-02-28T11:39:16.559Z,76.38
2017-02-28T11:40:16.540Z,76.19
2017-02-28T11:41:16.545Z,76.38
2017-02-28T11:42:16.530Z,77.13
2017-02-28T11:43:16.493Z,77.7
2017-02-28T11:44:16.472Z,77.66
2017-02-28T11:45:16.463Z,77.94
2017-02-28T11:46:16.430Z,77.66
2017-02-28T11:47:16.030Z,78.13
2017-02-28T11:48:16.397Z,77.56
2017-02-28T11:49:16.380Z,77.19
2017-02-28T11:50:16.358Z,76.9
2017-02-28T11:51:16.338Z,76.9
2017-02-28T11:52:15.927Z,77.37
2017-02-28T11:53:16.305Z,77.85
2017-02-28T11:54:15.903Z,77.19
2017-02-28T11:55:16.264Z,76.9
2017-02-28T11:56:16.234Z,76.72
2017-02-28T11:57:16.226Z,76.72
2017-02-28T11:58:16.207Z,77.09
2017-02-28T11:59:16.193Z,77.09
2017-02-28T12:00:16.182Z,76.62
2017-02-28T12:01:16.146Z,76.34
2017-02-28T12:02:16.131Z,77
2017-02-28T12:03:16.117Z,76.15
2017-02-28T12:04:16.091Z,76.15
2017-02-28T12:05:16.072Z,75.59
2017-02-28T12:06:16.057Z,75.49
2017-02-28T12:07:16.041Z,75.78
2017-02-28T12:08:16.017Z,75.68
2017-02-28T12:09:15.986Z,75.68
2017-02-28T12:10:15.982Z,75.78
2017-02-28T12:11:15.953Z,75.96
2017-02-28T12:12:15.932Z,77
2017-02-28T12:13:15.925Z,76.25
2017-02-28T12:14:15.906Z,75.87
2017-02-28T12:15:15.885Z,75.78
2017-02-28T12:16:15.858Z,76.43
2017-02-28T12:17:15.857Z,76.81
2017-02-28T12:18:15.836Z,76.62
2017-02-28T12:19:15.816Z,76.9
2017-02-28T12:20:15.777Z,76.25
2017-02-28T12:21:15.778Z,75.3
2017-02-28T12:22:15.742Z,75.59
2017-02-28T12:23:15.742Z,75.21
2017-02-28T12:24:15.726Z,75.4
2017-02-28T12:25:15.693Z,74.64
2017-02-28T12:26:15.661Z,74.64
2017-02-28T12:27:15.644Z,75.02
2017-02-28T12:28:15.641Z,75.4
2017-02-28T12:29:15.608Z,75.4
2017-02-28T12:30:15.587Z,75.11
2017-02-28T12:31:15.191Z,74.64
2017-02-28T12:32:15.543Z,74.07
2017-02-28T12:33:15.525Z,74.64
2017-02-28T12:34:15.530Z,74.92
2017-02-28T12:35:15.515Z,75.11
2017-02-28T12:36:15.481Z,75.02
2017-02-28T12:37:15.445Z,75.3
2017-02-28T12:38:15.434Z,75.4
2017-02-28T12:39:15.411Z,74.74
2017-02-28T12:40:15.400Z,74.92
2017-02-28T12:41:15.380Z,73.88
2017-02-28T12:42:15.351Z,73.88
2017-02-28T12:43:15.340Z,74.07
2017-02-28T12:44:15.333Z,73.98
2017-02-28T12:45:15.298Z,73.6
2017-02-28T12:46:15.281Z,73.6
2017-02-28T12:47:15.259Z,73.69
2017-02-28T12:48:15.229Z,73.69
2017-02-28T12:49:15.228Z,73.32
2017-02-28T12:50:15.193Z,73.51
2017-02-28T12:51:15.187Z,73.22
2017-02-28T12:52:15.167Z,72.85
2017-02-28T12:53:15.131Z,72.85
2017-02-28T12:54:15.114Z,72.75
2017-02-28T12:55:15.103Z,72.38
2017-02-28T12:56:15.096Z,71.91